Time;durP1;ratioP1;P1;durP2;ratioP2;P2;SDS_P1;SDS_P2;PMS_P1;PMS_P2;Temp;Humidity;BMP_temperature;BMP_pressure;BME280_temperature;BME280_humidity;BME280_pressure;Samples;Min_cycle;Max_cycle;Signal;HPM_P1;HPM_P2
2023/08/14 00:06:08;;;;;;;4.55;4.15;;;;;;;25.73;54.89;101293.81;21072365;28;20048;-63
2023/08/14 00:16:10;;;;;;;4.43;4.03;;;;;;;25.84;54.76;101300.94;21065553;28;20036;-64
2023/08/14 00:26:15;;;;;;;4.90;3.95;;;;;;;25.88;54.70;101323.56;21074404;28;20044;-63
2023/08/14 00:36:16;;;;;;;4.82;4.00;;;;;;;25.94;54.50;101329.97;21068016;28;20036;-63
2023/08/14 00:46:18;;;;;;;4.40;4.00;;;;;;;26.02;54.61;101351.66;21067656;28;20135;-63
2023/08/14 00:56:21;;;;;;;3.88;3.58;;;;;;;26.15;54.28;101364.91;21063580;28;20078;-63
2023/08/14 01:06:22;;;;;;;3.38;3.08;;;;;;;26.20;54.25;101376.03;21072821;28;20043;-63
2023/08/14 01:16:27;;;;;;;4.30;3.90;;;;;;;26.27;54.03;101381.28;21073195;28;20556;-64
2023/08/14 01:26:30;;;;;;;3.63;3.33;;;;;;;26.31;53.93;101401.97;21073280;28;20561;-63
2023/08/14 01:36:54;;;;;;;4.13;3.50;;;;;;;26.36;53.87;101402.72;21085569;28;20028;-65
2023/08/14 01:46:57;;;;;;;3.42;3.13;;;;;;;26.50;53.48;101410.38;21084146;28;20036;-64
2023/08/14 01:56:58;;;;;;;3.60;3.30;;;;;;;26.42;53.43;101399.81;21084206;28;20395;-64
2023/08/14 02:07:00;;;;;;;3.60;3.30;;;;;;;26.59;53.31;101422.56;21081839;28;20040;-63
2023/08/14 02:17:02;;;;;;;3.35;3.05;;;;;;;26.61;53.44;101420.25;21069251;28;20040;-64
2023/08/14 02:27:03;;;;;;;4.47;2.95;;;;;;;26.54;53.16;101397.38;21078983;28;20085;-63
2023/08/14 02:37:04;;;;;;;4.13;3.00;;;;;;;26.75;52.85;101421.13;21082300;28;20499;-63
2023/08/14 02:47:06;;;;;;;3.28;2.97;;;;;;;26.73;53.00;101423.41;21081490;28;20113;-64
2023/08/14 02:57:07;;;;;;;3.70;2.90;;;;;;;26.81;52.94;101430.28;21078489;28;20081;-64
2023/08/14 03:07:09;;;;;;;3.47;3.17;;;;;;;26.81;52.97;101431.13;21077913;28;20089;-64
2023/08/14 03:17:10;;;;;;;3.35;3.00;;;;;;;26.91;52.85;101423.66;21077807;28;20040;-63
2023/08/14 03:27:11;;;;;;;3.10;2.80;;;;;;;26.92;52.76;101409.28;21070088;28;20056;-64
2023/08/14 03:37:13;;;;;;;3.70;3.40;;;;;;;26.95;52.91;101419.09;21072399;28;20044;-64
2023/08/14 03:47:14;;;;;;;2.88;2.67;;;;;;;26.98;52.89;101418.44;21075082;28;20097;-63
2023/08/14 03:57:16;;;;;;;3.22;2.92;;;;;;;27.08;52.66;101419.13;21060864;28;20048;-64
2023/08/14 04:07:17;;;;;;;9.40;5.90;;;;;;;27.10;52.23;101430.03;21077781;28;20503;-63
2023/08/14 04:17:18;;;;;;;19.63;13.38;;;;;;;27.10;52.12;101411.19;21074582;28;20048;-64
2023/08/14 04:27:20;;;;;;;21.20;15.02;;;;;;;27.14;52.28;101417.03;21035049;28;20541;-64
2023/08/14 04:37:21;;;;;;;21.90;15.27;;;;;;;27.16;52.00;101414.72;20992149;28;20442;-65
2023/08/14 04:47:22;;;;;;;20.00;13.65;;;;;;;27.06;52.10;101384.84;21035452;28;20048;-64
2023/08/14 04:57:24;;;;;;;18.33;12.02;;;;;;;27.21;51.92;101392.16;21088691;28;20105;-64
2023/08/14 05:07:25;;;;;;;16.02;11.55;;;;;;;27.21;51.81;101371.66;21081355;28;20105;-65
2023/08/14 05:17:27;;;;;;;13.60;10.00;;;;;;;27.26;51.83;101369.59;21046849;28;20041;-65
2023/08/14 05:27:36;;;;;;;11.88;8.95;;;;;;;27.26;51.87;101369.59;21065970;28;20036;-65
2023/08/14 05:37:39;;;;;;;9.77;8.23;;;;;;;27.29;51.72;101356.88;21051740;28;20048;-64
2023/08/14 05:47:41;;;;;;;9.73;7.82;;;;;;;27.27;51.79;101348.75;21079518;28;20078;-65
2023/08/14 05:57:42;;;;;;;9.40;7.18;;;;;;;27.35;51.75;101356.47;21086988;28;20040;-65
2023/08/14 06:07:43;;;;;;;8.82;6.63;;;;;;;27.33;51.70;101353.13;21087669;28;20050;-64
2023/08/14 06:17:45;;;;;;;9.18;6.43;;;;;;;27.38;51.83;101371.00;21062628;28;20044;-65
2023/08/14 06:27:46;;;;;;;9.05;6.47;;;;;;;27.40;51.80;101363.09;21051614;28;20453;-65
2023/08/14 06:37:48;;;;;;;6.25;5.10;;;;;;;27.35;51.92;101356.47;21064087;28;20401;-65
2023/08/14 06:47:49;;;;;;;7.65;5.30;;;;;;;27.34;51.67;101353.94;21083661;28;20109;-65
2023/08/14 06:57:50;;;;;;;6.15;5.15;;;;;;;27.44;51.69;101372.56;21083931;28;20020;-65
2023/08/14 07:07:52;;;;;;;5.80;5.15;;;;;;;27.45;51.71;101360.19;21082720;28;20101;-65
2023/08/14 07:17:53;;;;;;;6.22;4.65;;;;;;;27.34;51.81;101337.91;21080630;28;20051;-64
2023/08/14 07:27:58;;;;;;;8.65;5.15;;;;;;;27.48;51.89;101365.16;21081202;28;20440;-65
2023/08/14 07:38:02;;;;;;;5.05;4.43;;;;;;;27.50;51.72;101358.09;21080849;28;20040;-64
2023/08/14 07:48:04;;;;;;;4.50;3.97;;;;;;;27.51;51.61;101347.66;21079449;28;20479;-64
2023/08/14 07:58:05;;;;;;;5.25;4.35;;;;;;;27.51;51.82;101342.06;21078764;28;20089;-64
2023/08/14 08:08:07;;;;;;;4.55;4.15;;;;;;;27.51;51.79;101336.44;21078747;28;20031;-64
2023/08/14 08:18:08;;;;;;;4.97;4.18;;;;;;;27.52;52.04;101338.91;21076976;28;20545;-64
2023/08/14 08:28:09;;;;;;;4.47;3.58;;;;;;;27.54;52.06;101330.19;21077225;28;20368;-65
2023/08/14 08:38:11;;;;;;;4.82;4.32;;;;;;;27.57;51.89;101340.78;21077132;28;20052;-65
2023/08/14 08:48:13;;;;;;;3.67;3.38;;;;;;;27.57;52.09;101329.53;21076752;28;20044;-65
2023/08/14 08:58:16;;;;;;;4.10;3.70;;;;;;;27.58;52.03;101334.00;21076804;28;20036;-64
2023/08/14 09:08:18;;;;;;;4.47;4.07;;;;;;;27.60;52.00;101332.53;21076176;28;20094;-64
2023/08/14 09:18:19;;;;;;;3.42;3.13;;;;;;;27.60;52.13;101326.09;21068099;28;20040;-65
2023/08/14 09:28:22;;;;;;;3.42;3.13;;;;;;;27.62;52.01;101354.72;21075210;28;20245;-64
2023/08/14 09:38:23;;;;;;;3.72;3.13;;;;;;;27.64;52.08;101334.72;21090456;28;20365;-65
2023/08/14 09:48:45;;;;;;;3.85;3.45;;;;;;;27.56;52.12;101323.06;21086388;28;20048;-64
2023/08/14 09:58:47;;;;;;;4.18;3.10;;;;;;;27.64;52.31;101337.53;21088155;28;20040;-65
2023/08/14 10:08:53;;;;;;;3.95;3.17;;;;;;;27.65;51.96;101347.63;21087109;28;20044;-65
2023/08/14 10:18:56;;;;;;;3.33;3.03;;;;;;;27.64;52.07;101358.06;21087090;28;20036;-64
2023/08/14 10:28:58;;;;;;;3.28;2.90;;;;;;;27.66;52.17;101364.16;21086081;28;20048;-65
2023/08/14 10:39:10;;;;;;;4.43;2.72;;;;;;;27.60;52.01;101348.59;21082033;28;20040;-65
2023/08/14 10:49:12;;;;;;;3.17;2.80;;;;;;;27.68;52.06;101345.03;21084707;28;20040;-65
2023/08/14 10:59:26;;;;;;;2.75;2.53;;;;;;;27.67;52.27;101339.69;21082705;28;20548;-65
2023/08/14 11:09:36;;;;;;;3.15;2.60;;;;;;;27.66;52.06;101349.28;21081291;28;20070;-63
2023/08/14 11:19:37;;;;;;;3.05;2.50;;;;;;;27.70;52.15;101345.53;21077337;28;20044;-63
2023/08/14 11:29:39;;;;;;;3.10;2.80;;;;;;;27.72;52.18;101348.91;21079226;28;20064;-64
2023/08/14 11:39:42;;;;;;;2.78;2.47;;;;;;;27.72;52.23;101359.28;21079057;28;20131;-64
2023/08/14 11:49:44;;;;;;;3.13;2.80;;;;;;;27.69;52.17;101366.38;21080260;28;20028;-65
2023/08/14 11:59:46;;;;;;;2.45;2.25;;;;;;;27.74;52.02;101371.91;21076977;28;20101;-64
2023/08/14 12:09:49;;;;;;;3.80;2.53;;;;;;;27.49;50.49;101406.16;21077747;28;20044;-64
2023/08/14 12:19:54;;;;;;;2.85;2.58;;;;;;;26.89;49.65;101428.72;21077109;28;20101;-63
2023/08/14 12:29:56;;;;;;;2.80;2.30;;;;;;;26.45;49.09;101402.88;21074857;28;20133;-65
2023/08/14 12:39:57;;;;;;;2.30;2.10;;;;;;;26.35;49.25;101429.09;21073495;28;20050;-65
2023/08/14 12:49:59;;;;;;;4.78;2.35;;;;;;;26.19;48.93;101450.13;21071060;28;20031;-63
2023/08/14 13:00:02;;;;;;;2.20;2.00;;;;;;;26.07;49.09;101455.34;21074487;28;20036;-65
2023/08/14 13:10:06;;;;;;;2.97;2.20;;;;;;;26.00;48.70;101460.53;21086474;28;20055;-65
2023/08/14 13:20:09;;;;;;;4.20;2.00;;;;;;;25.85;48.59;101465.22;21087914;28;20483;-65
2023/08/14 13:30:11;;;;;;;2.92;2.15;;;;;;;25.65;48.61;101431.81;21087948;28;20040;-65
2023/08/14 13:40:12;;;;;;;4.63;2.35;;;;;;;25.67;48.67;101452.00;21087083;28;20387;-65
2023/08/14 13:50:13;;;;;;;2.67;2.00;;;;;;;25.60;48.93;101460.75;21050345;28;20487;-65
2023/08/14 14:00:15;;;;;;;3.15;2.30;;;;;;;25.60;48.76;101477.56;21082978;28;20080;-64
2023/08/14 14:10:16;;;;;;;6.18;2.60;;;;;;;25.54;49.62;101477.94;21070039;28;20044;-64
2023/08/14 14:20:18;;;;;;;7.95;2.92;;;;;;;25.46;49.74;101464.59;21084546;28;20117;-64
2023/08/14 14:30:20;;;;;;;4.60;2.85;;;;;;;25.45;49.34;101457.31;21078565;28;20523;-64
2023/08/14 14:40:21;;;;;;;5.13;2.70;;;;;;;25.40;49.59;101469.44;21075398;28;20101;-64
2023/08/14 14:50:25;;;;;;;4.38;3.05;;;;;;;25.34;49.67;101476.25;21076067;28;20035;-65
2023/08/14 15:00:27;;;;;;;30.95;4.35;;;;;;;25.51;53.30;101484.13;21072826;28;20098;-64
2023/08/14 15:10:28;;;;;;;15.25;3.95;;;;;;;25.78;55.64;101481.56;21077028;28;20447;-66
2023/08/14 15:20:30;;;;;;;19.05;3.90;;;;;;;25.91;56.09;101435.13;21074793;28;20032;-65
2023/08/14 15:30:33;;;;;;;17.60;4.07;;;;;;;26.13;55.35;101430.88;21078279;28;20044;-62
2023/08/14 15:40:35;;;;;;;11.43;3.60;;;;;;;26.45;55.30;101427.31;21015032;28;20056;-61
2023/08/14 15:50:36;;;;;;;12.55;3.80;;;;;;;26.58;54.78;101440.53;21024367;28;20473;-61
2023/08/14 16:00:41;;;;;;;9.30;3.30;;;;;;;26.71;54.83;101434.13;21070051;28;20044;-60
2023/08/14 16:10:42;;;;;;;12.50;3.28;;;;;;;26.77;54.49;101418.03;21052011;28;20475;-59
2023/08/14 16:20:44;;;;;;;6.78;3.47;;;;;;;26.90;54.66;101407.94;21045324;28;20029;-57
2023/08/14 16:30:47;;;;;;;4.47;3.15;;;;;;;26.98;54.16;101390.34;21061259;28;20453;-57
2023/08/14 16:40:48;;;;;;;9.40;2.97;;;;;;;27.05;54.17;101376.75;21010420;28;20036;-59
2023/08/14 16:50:50;;;;;;;7.05;2.78;;;;;;;27.13;53.83;101359.19;21049068;28;20047;-58
2023/08/14 17:00:52;;;;;;;7.03;3.00;;;;;;;27.08;53.66;101311.53;21050413;28;20445;-58
2023/08/14 17:10:54;;;;;;;6.03;2.78;;;;;;;27.30;53.60;101330.44;21063904;28;20040;-58
2023/08/14 17:20:55;;;;;;;4.53;3.03;;;;;;;27.37;53.34;101316.78;21039410;28;20051;-58
2023/08/14 17:30:58;;;;;;;5.88;3.58;;;;;;;27.40;52.91;101301.25;21063052;28;20127;-59
2023/08/14 17:41:00;;;;;;;4.40;3.30;;;;;;;26.85;51.97;101297.41;21071461;28;20109;-58
2023/08/14 17:51:01;;;;;;;3.95;3.00;;;;;;;26.62;51.50;101290.03;21058572;28;20082;-58
2023/08/14 18:01:02;;;;;;;3.70;2.92;;;;;;;26.39;51.03;101268.53;21049793;28;20093;-57
2023/08/14 18:11:06;;;;;;;5.43;3.22;;;;;;;26.28;50.80;101260.31;21056221;28;20062;-57
2023/08/14 18:21:08;;;;;;;4.75;3.15;;;;;;;26.18;50.64;101246.50;21075890;28;20032;-58
2023/08/14 18:31:09;;;;;;;4.88;3.17;;;;;;;26.12;50.53;101239.34;21055466;28;20491;-58
2023/08/14 18:41:11;;;;;;;3.78;2.97;;;;;;;26.01;50.45;101237.84;21085827;28;20044;-58
2023/08/14 18:51:12;;;;;;;4.30;3.28;;;;;;;25.94;50.44;101215.00;21081338;28;20409;-58
2023/08/14 19:01:14;;;;;;;6.72;3.53;;;;;;;25.89;50.25;101201.03;21080916;28;20056;-58
2023/08/14 19:11:15;;;;;;;2.97;2.67;;;;;;;25.94;50.31;101203.78;21051518;28;20052;-57
2023/08/14 19:21:17;;;;;;;3.10;2.83;;;;;;;25.91;50.38;101182.78;21079737;28;20481;-56
2023/08/14 19:31:18;;;;;;;3.25;2.95;;;;;;;25.80;50.29;101168.16;21032895;28;20391;-57
2023/08/14 19:41:20;;;;;;;3.42;3.05;;;;;;;25.75;50.08;101173.81;21080275;28;20044;-59
2023/08/14 19:51:21;;;;;;;3.38;3.08;;;;;;;25.69;50.30;101166.63;21079043;28;20047;-57
2023/08/14 20:01:22;;;;;;;3.95;3.28;;;;;;;25.59;50.65;101141.59;21050601;28;20043;-58
2023/08/14 20:11:23;;;;;;;3.92;3.53;;;;;;;25.70;51.32;101147.81;21053127;28;20082;-57
2023/08/14 20:21:28;;;;;;;3.85;3.38;;;;;;;25.64;51.25;101119.06;21076757;28;20372;-59
2023/08/14 20:31:30;;;;;;;3.60;3.30;;;;;;;25.62;51.34;101098.94;21075827;28;20128;-60
2023/08/14 20:41:31;;;;;;;8.57;3.83;;;;;;;25.58;51.34;101084.72;21067632;28;20040;-58
2023/08/14 20:51:33;;;;;;;7.32;4.50;;;;;;;25.49;51.22;101068.94;21074415;28;20121;-57
2023/08/14 21:01:34;;;;;;;8.13;4.95;;;;;;;25.51;51.12;101050.66;21063781;28;20042;-59
2023/08/14 21:11:36;;;;;;;7.00;5.35;;;;;;;25.50;51.31;101053.78;21030865;28;20058;-57
2023/08/14 21:21:38;;;;;;;5.85;4.75;;;;;;;25.61;51.76;101066.44;21052229;28;20036;-58
2023/08/14 21:31:42;;;;;;;7.45;4.72;;;;;;;25.64;51.51;101077.03;21090887;28;20086;-57
2023/08/14 21:41:43;;;;;;;5.60;4.30;;;;;;;25.60;51.36;101073.19;21090214;28;20564;-56
2023/08/14 21:51:45;;;;;;;6.88;4.60;;;;;;;25.59;51.47;101068.72;21075229;28;20536;-59
2023/08/14 22:01:49;;;;;;;5.05;4.38;;;;;;;25.57;51.55;101066.25;21087134;28;20047;-58
2023/08/14 22:11:50;;;;;;;5.93;4.22;;;;;;;25.58;51.37;101055.88;21087798;28;20552;-58
2023/08/14 22:21:51;;;;;;;6.50;4.10;;;;;;;25.59;51.05;101057.53;21086178;28;20468;-58
2023/08/14 22:31:53;;;;;;;7.25;4.57;;;;;;;25.56;50.94;101056.16;21085157;28;20442;-59
2023/08/14 22:41:54;;;;;;;5.30;4.10;;;;;;;25.51;50.58;101035.81;21083163;28;20513;-59
2023/08/14 22:51:55;;;;;;;5.60;4.25;;;;;;;25.54;50.31;101040.81;21083610;28;20457;-59
2023/08/14 23:01:57;;;;;;;4.35;3.90;;;;;;;25.49;50.23;101052.13;21081097;28;20040;-58
2023/08/14 23:12:00;;;;;;;4.53;4.13;;;;;;;25.48;50.23;101044.88;21083116;28;20449;-58
2023/08/14 23:22:02;;;;;;;4.00;3.63;;;;;;;25.42;49.84;101074.09;21082509;28;20044;-57
2023/08/14 23:32:03;;;;;;;4.07;3.67;;;;;;;25.37;49.75;101074.19;21080981;28;20044;-56
2023/08/14 23:42:04;;;;;;;5.55;3.85;;;;;;;25.25;48.91;101086.72;21080154;28;20036;-57
2023/08/14 23:52:06;;;;;;;4.47;4.07;;;;;;;25.37;49.51;101093.81;21075651;28;20043;-58
